San Julian, Argentina
Current Conditions -  °F | °C
As of 2:00 PM on Monday 20 Oct 2014 (Local Time) from SAWG Reporting Station
Broken Clouds Broken Clouds  
Wind Chill: 17°   Ceiling: 20000
Heat Index: 17°   Visibility: 6mi
Dew Point:   Wind: 12mph
Humidity: 34%   Direction: 50°NE
Pressure: 29.32"   Gusts: NA
Location:  49.31°S, 67.71°W
Report Text: SAWG 201700Z 05010KT 9999 FEW045 BKN20017/01 Q0993
Loading
Personal Weather Stations






























Interactive Weather Map
Tropical Storm Tracking
New forecast layout! Learn more

10-Day Weather Forecast

Advertisements
Track Severe Weather on mobile